Time;durP1;ratioP1;P1;durP2;ratioP2;P2;SDS_P1;SDS_P2;PMS_P1;PMS_P2;Temp;Humidity;BMP_temperature;BMP_pressure;BME280_temperature;BME280_humidity;BME280_pressure;Samples;Min_cycle;Max_cycle;Signal;HPM_P1;HPM_P2
2023/08/06 00:01:49;;;;;;;;;;;;;;;30.63;43.58;99586.70;102323;1303;62369;-81
2023/08/06 00:04:14;;;;;;;;;;;;;;;30.63;43.62;99584.18;102360;1308;62204;-82
2023/08/06 00:06:39;;;;;;;;;;;;;;;30.62;43.46;99581.45;102415;1300;62142;-81
2023/08/06 00:09:05;;;;;;;;;;;;;;;30.62;43.54;99583.51;102487;1305;62289;-81
2023/08/06 00:11:30;;;;;;;;;;;;;;;30.63;43.51;99589.46;102297;1300;62969;-81
2023/08/06 00:13:56;;;;;;;;;;;;;;;30.63;43.55;99588.75;102304;1306;62240;-81
2023/08/06 00:16:21;;;;;;;;;;;;;;;30.63;43.53;99592.02;102344;1300;62207;-81
2023/08/06 00:18:46;;;;;;;;;;;;;;;30.62;43.48;99591.17;102463;1300;62235;-81
2023/08/06 00:21:12;;;;;;;;;;;;;;;30.62;43.53;99587.55;102613;1300;66625;-81
2023/08/06 00:23:38;;;;;;;;;;;;;;;30.62;43.52;99580.10;102467;1304;63397;-81
2023/08/06 00:26:04;;;;;;;;;;;;;;;30.62;43.56;99575.25;102334;1300;62215;-81
2023/08/06 00:28:29;;;;;;;;;;;;;;;30.61;43.61;99575.84;102316;1300;62280;-81
2023/08/06 00:30:56;;;;;;;;;;;;;;;30.62;43.49;99575.09;102422;1300;63347;-81
2023/08/06 00:33:21;;;;;;;;;;;;;;;30.62;43.60;99575.63;102418;1300;63255;-81
2023/08/06 00:35:47;;;;;;;;;;;;;;;30.61;43.57;99574.20;102559;1300;62222;-81
2023/08/06 00:38:12;;;;;;;;;;;;;;;30.61;43.57;99568.38;102495;1299;62234;-82
2023/08/06 00:40:38;;;;;;;;;;;;;;;30.61;43.57;99569.46;102592;1300;63252;-82
2023/08/06 00:43:03;;;;;;;;;;;;;;;30.61;43.64;99569.66;102364;1299;62219;-82
2023/08/06 00:45:29;;;;;;;;;;;;;;;30.61;43.55;99567.33;102354;1300;63307;-82
2023/08/06 00:47:55;;;;;;;;;;;;;;;30.61;43.61;99572.77;102504;1299;62251;-82
2023/08/06 00:50:22;;;;;;;;;;;;;;;30.61;43.57;99570.80;102298;1303;62194;-82
2023/08/06 00:52:49;;;;;;;;;;;;;;;30.60;43.64;99567.95;102396;1300;64008;-82
2023/08/06 00:55:14;;;;;;;;;;;;;;;30.60;43.66;99560.33;102447;1305;62234;-82
2023/08/06 00:57:39;;;;;;;;;;;;;;;30.61;43.54;99553.92;102482;1300;62209;-82
2023/08/06 01:00:05;;;;;;;;;;;;;;;30.60;43.67;99532.92;102293;1300;63311;-82
2023/08/06 01:02:31;;;;;;;;;;;;;;;30.60;43.57;99530.57;102533;1299;62251;-82
2023/08/06 01:04:56;;;;;;;;;;;;;;;30.59;43.70;99529.36;102483;1300;63889;-82
2023/08/06 01:07:57;;;;;;;;;;;;;;;30.60;43.73;99531.15;102378;1300;62263;-82
2023/08/06 01:10:26;;;;;;;;;;;;;;;30.59;43.60;99529.73;102016;1306;62136;-82
2023/08/06 01:12:54;;;;;;;;;;;;;;;30.59;43.65;99529.90;102114;1305;62225;-83
2023/08/06 01:15:20;;;;;;;;;;;;;;;30.59;43.69;99527.39;102272;1300;64980;-83
2023/08/06 01:17:46;;;;;;;;;;;;;;;30.59;43.69;99517.41;102457;1304;67178;-82
2023/08/06 01:20:12;;;;;;;;;;;;;;;30.58;43.59;99508.63;102472;1300;62267;-82
2023/08/06 01:22:37;;;;;;;;;;;;;;;30.59;43.70;99501.79;102407;1300;62925;-82
2023/08/06 01:25:02;;;;;;;;;;;;;;;30.59;43.58;99499.86;102562;1300;62308;-82
2023/08/06 01:27:28;;;;;;;;;;;;;;;30.59;43.74;99493.55;102710;1303;62235;-82
2023/08/06 01:30:07;;;;;;;;;;;;;;;30.58;43.83;99487.55;102419;1305;62679;-82
2023/08/06 01:32:34;;;;;;;;;;;;;;;30.59;43.65;99483.73;102464;1300;62219;-82
2023/08/06 01:34:59;;;;;;;;;;;;;;;30.58;43.83;99484.84;102544;1304;62133;-82
2023/08/06 01:37:25;;;;;;;;;;;;;;;30.58;43.81;99483.61;102534;1300;62236;-82
2023/08/06 01:39:50;;;;;;;;;;;;;;;30.58;43.69;99481.44;102468;1300;62245;-82
2023/08/06 01:42:16;;;;;;;;;;;;;;;30.57;43.74;99472.24;102588;1300;62225;-82
2023/08/06 01:44:41;;;;;;;;;;;;;;;30.58;43.86;99465.88;102530;1299;62269;-82
2023/08/06 01:47:06;;;;;;;;;;;;;;;30.57;43.82;99461.36;102451;1299;62222;-82
2023/08/06 01:49:32;;;;;;;;;;;;;;;30.57;43.86;99471.16;102499;1304;63049;-83
2023/08/06 01:51:58;;;;;;;;;;;;;;;30.57;43.98;99472.16;102224;1300;62200;-83
2023/08/06 01:54:23;;;;;;;;;;;;;;;30.57;43.91;99486.15;102362;1305;62255;-82
2023/08/06 01:56:49;;;;;;;;;;;;;;;30.56;43.97;99487.63;102688;1302;62263;-82
2023/08/06 01:59:14;;;;;;;;;;;;;;;30.57;43.89;99480.34;102439;1299;63387;-82
2023/08/06 02:01:40;;;;;;;;;;;;;;;30.57;43.93;99487.63;102478;1300;63313;-82
2023/08/06 02:04:05;;;;;;;;;;;;;;;30.56;43.93;99494.70;102210;1305;62292;-82
2023/08/06 02:06:30;;;;;;;;;;;;;;;30.56;43.98;99500.52;102261;1300;63322;-82
2023/08/06 02:08:56;;;;;;;;;;;;;;;30.56;43.90;99497.48;102322;1301;62145;-82
2023/08/06 02:11:21;;;;;;;;;;;;;;;30.56;44.00;99494.95;102298;1299;63769;-82
2023/08/06 02:13:47;;;;;;;;;;;;;;;30.56;43.96;99502.78;102506;1300;62245;-82
2023/08/06 02:16:13;;;;;;;;;;;;;;;30.56;44.01;99504.59;102391;1305;62241;-82
2023/08/06 02:18:38;;;;;;;;;;;;;;;30.56;43.99;99501.33;102504;1300;62892;-82
2023/08/06 02:21:04;;;;;;;;;;;;;;;30.56;44.02;99495.36;102500;1303;62248;-82
2023/08/06 02:23:30;;;;;;;;;;;;;;;30.55;44.04;99496.88;102436;1299;62116;-82
2023/08/06 02:25:58;;;;;;;;;;;;;;;30.55;44.14;99498.30;102409;1301;62586;-82
2023/08/06 02:28:24;;;;;;;;;;;;;;;30.55;43.95;99490.21;102529;1300;66668;-82
2023/08/06 02:30:50;;;;;;;;;;;;;;;30.55;44.11;99491.30;102514;1305;62192;-82
2023/08/06 02:33:16;;;;;;;;;;;;;;;30.55;44.17;99493.65;102352;1302;62104;-82
2023/08/06 02:35:41;;;;;;;;;;;;;;;30.55;44.14;99488.95;102301;1305;62145;-82
2023/08/06 02:38:07;;;;;;;;;;;;;;;30.55;44.17;99490.96;102253;1300;62216;-82
2023/08/06 02:40:32;;;;;;;;;;;;;;;30.55;44.20;99493.31;102468;1302;63377;-82
2023/08/06 02:42:57;;;;;;;;;;;;;;;30.54;44.04;99493.89;102525;1306;62139;-82
2023/08/06 02:45:23;;;;;;;;;;;;;;;30.54;44.10;99494.61;102353;1300;62310;-82
2023/08/06 02:47:48;;;;;;;;;;;;;;;30.54;44.07;99492.69;102371;1300;62238;-82
2023/08/06 02:50:14;;;;;;;;;;;;;;;30.54;44.26;99489.38;102465;1300;63107;-82
2023/08/06 02:52:40;;;;;;;;;;;;;;;30.54;44.20;99493.19;102389;1300;66576;-82
2023/08/06 02:55:06;;;;;;;;;;;;;;;30.54;44.22;99494.66;102565;1300;62120;-82
2023/08/06 02:57:31;;;;;;;;;;;;;;;30.54;44.19;99491.23;102518;1300;62264;-82
2023/08/06 02:59:57;;;;;;;;;;;;;;;30.54;44.18;99484.77;102545;1305;62141;-82
2023/08/06 03:02:22;;;;;;;;;;;;;;;30.54;44.37;99481.47;102571;1300;63346;-82
2023/08/06 03:04:48;;;;;;;;;;;;;;;30.53;44.40;99468.26;102460;1300;62800;-82
2023/08/06 03:07:13;;;;;;;;;;;;;;;30.53;44.23;99468.84;102675;1300;62115;-82
2023/08/06 03:09:39;;;;;;;;;;;;;;;30.53;44.24;99474.83;102463;1300;63391;-82
2023/08/06 03:12:05;;;;;;;;;;;;;;;30.53;44.34;99477.52;102221;1305;62248;-82
2023/08/06 03:14:30;;;;;;;;;;;;;;;30.53;44.27;99474.33;102348;1300;62427;-82
2023/08/06 03:16:55;;;;;;;;;;;;;;;30.53;44.22;99477.59;102396;1300;62222;-82
2023/08/06 03:19:21;;;;;;;;;;;;;;;30.53;44.36;99484.67;102524;1300;62139;-82
2023/08/06 03:21:46;;;;;;;;;;;;;;;30.53;44.30;99491.92;102391;1300;62142;-82
2023/08/06 03:24:13;;;;;;;;;;;;;;;30.53;44.28;99491.20;102228;1305;62356;-82
2023/08/06 03:26:38;;;;;;;;;;;;;;;30.53;44.40;99490.33;102492;1300;63269;-82
2023/08/06 03:29:04;;;;;;;;;;;;;;;30.52;44.49;99490.19;102484;1300;62234;-82
2023/08/06 03:31:29;;;;;;;;;;;;;;;30.53;44.37;99485.22;102485;1300;62673;-82
2023/08/06 03:33:54;;;;;;;;;;;;;;;30.53;44.54;99484.34;102334;1300;62218;-82
2023/08/06 03:36:21;;;;;;;;;;;;;;;30.53;44.34;99477.77;102397;1301;62946;-82
2023/08/06 03:38:47;;;;;;;;;;;;;;;30.53;44.34;99470.14;102451;1300;62280;-82
2023/08/06 03:41:12;;;;;;;;;;;;;;;30.53;44.44;99466.33;102312;1305;62277;-82
2023/08/06 03:43:38;;;;;;;;;;;;;;;30.53;44.48;99467.01;102516;1300;62227;-82
2023/08/06 03:46:03;;;;;;;;;;;;;;;30.53;44.47;99462.52;102443;1300;62219;-82
2023/08/06 03:48:28;;;;;;;;;;;;;;;30.53;44.46;99463.06;102314;1305;62226;-82
2023/08/06 03:50:54;;;;;;;;;;;;;;;30.53;44.65;99462.21;102465;1300;62290;-81
2023/08/06 03:53:19;;;;;;;;;;;;;;;30.53;44.53;99462.67;102558;1300;62246;-81
2023/08/06 03:55:45;;;;;;;;;;;;;;;30.53;44.59;99462.34;102356;1305;62209;-82
2023/08/06 03:58:10;;;;;;;;;;;;;;;30.53;44.49;99456.52;102569;1299;63260;-82
2023/08/06 04:00:36;;;;;;;;;;;;;;;30.53;44.50;99451.41;102319;1300;62234;-82
2023/08/06 04:03:01;;;;;;;;;;;;;;;30.53;44.47;99456.45;102514;1302;62238;-82
2023/08/06 04:05:26;;;;;;;;;;;;;;;30.53;44.59;99458.29;102508;1300;62225;-82
2023/08/06 04:07:52;;;;;;;;;;;;;;;30.53;44.55;99453.04;102372;1299;62307;-82
2023/08/06 04:10:17;;;;;;;;;;;;;;;30.53;44.51;99458.47;102254;1300;62355;-82
2023/08/06 04:12:43;;;;;;;;;;;;;;;30.54;44.50;99467.47;102290;1300;63252;-83
2023/08/06 04:15:08;;;;;;;;;;;;;;;30.53;44.59;99465.88;102534;1305;62234;-82
2023/08/06 04:17:34;;;;;;;;;;;;;;;30.54;44.62;99463.12;102564;1299;62221;-83
2023/08/06 04:19:59;;;;;;;;;;;;;;;30.53;44.63;99464.11;102479;1305;63279;-82
2023/08/06 04:22:25;;;;;;;;;;;;;;;30.53;44.52;99461.01;102461;1299;62251;-82
2023/08/06 04:24:50;;;;;;;;;;;;;;;30.54;44.56;99460.77;102531;1305;62195;-82
2023/08/06 04:27:16;;;;;;;;;;;;;;;30.54;44.62;99461.14;102327;1299;62278;-82
2023/08/06 04:29:41;;;;;;;;;;;;;;;30.54;44.50;99465.48;102361;1300;62254;-82
2023/08/06 04:32:08;;;;;;;;;;;;;;;30.54;44.60;99459.52;102453;1300;63260;-82
2023/08/06 04:34:34;;;;;;;;;;;;;;;30.54;44.57;99458.04;102481;1300;62214;-82
2023/08/06 04:37:00;;;;;;;;;;;;;;;30.54;44.63;99461.52;102498;1299;62699;-82
2023/08/06 04:39:25;;;;;;;;;;;;;;;30.54;44.61;99465.80;102245;1300;63689;-82
2023/08/06 04:41:50;;;;;;;;;;;;;;;30.54;44.67;99459.85;102397;1303;62263;-82
2023/08/06 04:44:16;;;;;;;;;;;;;;;30.54;44.54;99454.02;102247;1303;62670;-82
2023/08/06 04:46:42;;;;;;;;;;;;;;;30.54;44.63;99451.80;102390;1300;62873;-82
2023/08/06 04:49:07;;;;;;;;;;;;;;;30.55;44.61;99451.92;102536;1299;62209;-82
2023/08/06 04:51:33;;;;;;;;;;;;;;;30.55;44.62;99451.88;102276;1305;62216;-82
2023/08/06 04:53:58;;;;;;;;;;;;;;;30.55;44.49;99455.85;102321;1303;62327;-82
2023/08/06 04:56:24;;;;;;;;;;;;;;;30.56;44.48;99453.64;102529;1300;62117;-82
2023/08/06 04:58:49;;;;;;;;;;;;;;;30.55;44.43;99452.58;102293;1305;62298;-82
2023/08/06 05:01:15;;;;;;;;;;;;;;;30.56;44.52;99453.77;102350;1302;62258;-82
2023/08/06 05:03:40;;;;;;;;;;;;;;;30.56;44.63;99454.69;102473;1305;62244;-82
2023/08/06 05:06:06;;;;;;;;;;;;;;;30.56;44.51;99452.13;102272;1305;62286;-82
2023/08/06 05:08:31;;;;;;;;;;;;;;;30.56;44.42;99456.83;102585;1300;62292;-82
2023/08/06 05:10:57;;;;;;;;;;;;;;;30.56;44.52;99451.80;102344;1300;63889;-82
2023/08/06 05:13:22;;;;;;;;;;;;;;;30.56;44.37;99459.05;102497;1304;62203;-82
2023/08/06 05:15:48;;;;;;;;;;;;;;;30.55;44.42;99464.70;102541;1304;62141;-82
2023/08/06 05:18:13;;;;;;;;;;;;;;;30.55;44.43;99459.49;102503;1299;62254;-82
2023/08/06 05:20:40;;;;;;;;;;;;;;;30.55;44.47;99454.94;102384;1304;62132;-82
2023/08/06 05:23:05;;;;;;;;;;;;;;;30.55;44.50;99452.59;102453;1300;62306;-82
2023/08/06 05:25:31;;;;;;;;;;;;;;;30.55;44.47;99451.21;102211;1303;62222;-82
2023/08/06 05:27:57;;;;;;;;;;;;;;;30.55;44.40;99453.69;102301;1306;63226;-83
2023/08/06 05:30:22;;;;;;;;;;;;;;;30.54;44.44;99444.34;102475;1300;62162;-82
2023/08/06 05:32:47;;;;;;;;;;;;;;;30.54;44.35;99444.71;102334;1300;62313;-82
2023/08/06 05:35:13;;;;;;;;;;;;;;;30.55;44.32;99444.08;102374;1303;62210;-82
2023/08/06 05:37:38;;;;;;;;;;;;;;;30.55;44.35;99441.90;102404;1300;62247;-83
2023/08/06 05:40:05;;;;;;;;;;;;;;;30.55;44.48;99442.95;102368;1299;62228;-82
2023/08/06 05:42:30;;;;;;;;;;;;;;;30.55;44.39;99432.48;102496;1300;63307;-82
2023/08/06 05:44:56;;;;;;;;;;;;;;;30.55;44.35;99424.31;102443;1300;62202;-82
2023/08/06 05:47:21;;;;;;;;;;;;;;;30.55;44.45;99421.73;102329;1305;62281;-83
2023/08/06 05:49:47;;;;;;;;;;;;;;;30.56;44.41;99421.45;102486;1299;62258;-83
2023/08/06 05:52:12;;;;;;;;;;;;;;;30.55;44.40;99419.37;102342;1303;62149;-83
2023/08/06 05:54:37;;;;;;;;;;;;;;;30.55;44.37;99418.62;102487;1299;62247;-82
2023/08/06 05:57:03;;;;;;;;;;;;;;;30.55;44.45;99419.00;102439;1300;62955;-82
2023/08/06 05:59:28;;;;;;;;;;;;;;;30.55;44.33;99416.43;102473;1306;62010;-82
2023/08/06 06:01:54;;;;;;;;;;;;;;;30.55;44.36;99409.02;102378;1305;62779;-82
2023/08/06 06:04:20;;;;;;;;;;;;;;;30.55;44.46;99406.80;102381;1300;63153;-82
2023/08/06 06:06:45;;;;;;;;;;;;;;;30.56;44.38;99406.23;102274;1300;62280;-82
2023/08/06 06:09:11;;;;;;;;;;;;;;;30.56;44.42;99406.55;102276;1302;62385;-82
2023/08/06 06:11:36;;;;;;;;;;;;;;;30.56;44.39;99406.05;102283;1300;62107;-82
2023/08/06 06:14:01;;;;;;;;;;;;;;;30.56;44.37;99404.67;102431;1305;62219;-82
2023/08/06 06:16:27;;;;;;;;;;;;;;;30.56;44.25;99400.52;102450;1304;62272;-82
2023/08/06 06:18:54;;;;;;;;;;;;;;;30.57;44.49;99397.47;102412;1305;62661;-82
2023/08/06 06:21:20;;;;;;;;;;;;;;;30.58;44.34;99398.86;102328;1299;62774;-82
2023/08/06 06:23:45;;;;;;;;;;;;;;;30.58;44.20;99401.36;102445;1305;62241;-82
2023/08/06 06:26:11;;;;;;;;;;;;;;;30.58;44.22;99403.30;102499;1306;63376;-82
2023/08/06 06:28:36;;;;;;;;;;;;;;;30.59;44.41;99403.37;102487;1299;62209;-82
2023/08/06 06:31:02;;;;;;;;;;;;;;;30.60;44.38;99402.20;102282;1300;62286;-82
2023/08/06 06:33:27;;;;;;;;;;;;;;;30.62;44.29;99399.28;102532;1300;62222;-82
2023/08/06 06:35:53;;;;;;;;;;;;;;;30.62;44.30;99390.69;102507;1300;62254;-82
2023/08/06 06:38:19;;;;;;;;;;;;;;;30.63;44.32;99389.35;102285;1305;62231;-82
2023/08/06 06:40:52;;;;;;;;;;;;;;;30.64;44.37;99388.68;102479;1300;66331;-82
2023/08/06 06:43:18;;;;;;;;;;;;;;;30.64;44.30;99388.31;102430;1306;62224;-82
2023/08/06 06:45:43;;;;;;;;;;;;;;;30.64;44.18;99387.72;102231;1304;63305;-82
2023/08/06 06:48:09;;;;;;;;;;;;;;;30.65;44.22;99387.46;102322;1305;62259;-82
2023/08/06 06:50:35;;;;;;;;;;;;;;;30.65;44.27;99389.77;102728;1300;62835;-82
2023/08/06 06:53:00;;;;;;;;;;;;;;;30.65;44.24;99386.12;102401;1300;62151;-82
2023/08/06 06:55:26;;;;;;;;;;;;;;;30.65;44.32;99390.10;102452;1305;62245;-82
2023/08/06 06:57:51;;;;;;;;;;;;;;;30.65;44.31;99385.75;102480;1300;63064;-82
2023/08/06 07:00:18;;;;;;;;;;;;;;;30.65;44.28;99385.58;102359;1300;62676;-82
2023/08/06 07:02:43;;;;;;;;;;;;;;;30.65;44.32;99383.36;102544;1305;62152;-82
2023/08/06 07:05:09;;;;;;;;;;;;;;;30.66;44.31;99386.41;102515;1300;62237;-82
2023/08/06 07:07:35;;;;;;;;;;;;;;;30.66;44.28;99389.31;102335;1305;62215;-82
2023/08/06 07:10:01;;;;;;;;;;;;;;;30.66;44.17;99388.93;102389;1300;284102;-82
2023/08/06 07:12:27;;;;;;;;;;;;;;;30.66;44.24;99386.04;102505;1300;62228;-82
2023/08/06 07:14:52;;;;;;;;;;;;;;;30.66;44.20;99388.68;102461;1300;62100;-82
2023/08/06 07:17:17;;;;;;;;;;;;;;;30.66;44.31;99381.98;102416;1300;62222;-82
2023/08/06 07:19:43;;;;;;;;;;;;;;;30.67;44.30;99384.75;102391;1300;62263;-82
2023/08/06 07:22:08;;;;;;;;;;;;;;;30.67;44.18;99388.14;102503;1300;62250;-82
2023/08/06 07:24:34;;;;;;;;;;;;;;;30.68;44.17;99381.31;102576;1304;62318;-82
2023/08/06 07:26:59;;;;;;;;;;;;;;;30.69;44.20;99385.25;102288;1303;62913;-82
2023/08/06 07:29:25;;;;;;;;;;;;;;;30.69;44.23;99389.77;102303;1303;62209;-82
2023/08/06 07:31:50;;;;;;;;;;;;;;;30.69;44.27;99394.34;102319;1303;62237;-82
2023/08/06 07:34:16;;;;;;;;;;;;;;;30.69;44.20;99394.50;102398;1303;62282;-82
2023/08/06 07:36:43;;;;;;;;;;;;;;;30.69;44.19;99396.31;102300;1305;63820;-82
2023/08/06 07:39:08;;;;;;;;;;;;;;;30.69;44.24;99399.96;102290;1305;66836;-82
2023/08/06 07:41:36;;;;;;;;;;;;;;;30.69;44.30;99403.39;102317;1301;62314;-82
2023/08/06 07:44:01;;;;;;;;;;;;;;;30.69;44.26;99406.33;102297;1303;62135;-83
2023/08/06 07:46:27;;;;;;;;;;;;;;;30.69;44.17;99404.27;102405;1303;62216;-82
2023/08/06 07:48:52;;;;;;;;;;;;;;;30.69;44.18;99407.96;102283;1305;63546;-82
2023/08/06 07:51:18;;;;;;;;;;;;;;;30.69;44.24;99402.34;102236;1305;63482;-82
2023/08/06 07:53:43;;;;;;;;;;;;;;;30.69;44.09;99395.43;102415;1305;62862;-83
2023/08/06 07:56:08;;;;;;;;;;;;;;;30.69;44.27;99396.52;102295;1302;62244;-83
2023/08/06 07:58:34;;;;;;;;;;;;;;;30.69;44.16;99394.34;102391;1303;63148;-82
2023/08/06 08:00:59;;;;;;;;;;;;;;;30.68;44.20;99394.55;102379;1305;62229;-82
2023/08/06 08:03:25;;;;;;;;;;;;;;;30.69;44.19;99396.52;102259;1302;62257;-83
2023/08/06 08:05:52;;;;;;;;;;;;;;;30.69;44.23;99399.96;102240;1305;62133;-82
2023/08/06 08:08:17;;;;;;;;;;;;;;;30.69;44.18;99403.56;102352;1305;62095;-82
2023/08/06 08:10:42;;;;;;;;;;;;;;;30.68;44.12;99404.52;102349;1303;62303;-82
2023/08/06 08:13:08;;;;;;;;;;;;;;;30.69;44.20;99399.91;102491;1300;62243;-82
2023/08/06 08:15:33;;;;;;;;;;;;;;;30.69;44.20;99397.39;102330;1302;62267;-82
2023/08/06 08:17:59;;;;;;;;;;;;;;;30.69;44.21;99393.71;102619;1302;62233;-82
2023/08/06 08:20:24;;;;;;;;;;;;;;;30.69;44.16;99394.30;102388;1302;62334;-81
2023/08/06 08:22:50;;;;;;;;;;;;;;;30.69;44.18;99397.57;102420;1302;62377;-82
2023/08/06 08:25:15;;;;;;;;;;;;;;;30.69;44.21;99395.34;102696;1305;62154;-82
2023/08/06 08:27:41;;;;;;;;;;;;;;;30.69;44.19;99396.65;102297;1306;62228;-82
2023/08/06 08:30:06;;;;;;;;;;;;;;;30.69;44.21;99393.71;102756;1300;62315;-82
2023/08/06 08:32:32;;;;;;;;;;;;;;;30.69;44.24;99382.70;102659;1303;62209;-82
2023/08/06 08:34:57;;;;;;;;;;;;;;;30.69;44.23;99392.98;102498;1300;62231;-83
2023/08/06 08:37:23;;;;;;;;;;;;;;;30.70;44.17;99391.65;102346;1300;62139;-82
2023/08/06 08:39:49;;;;;;;;;;;;;;;30.70;44.15;99393.63;102361;1308;62255;-82
2023/08/06 08:42:14;;;;;;;;;;;;;;;30.70;44.17;99394.15;102410;1300;62302;-82
2023/08/06 08:44:40;;;;;;;;;;;;;;;30.70;44.22;99392.71;102498;1302;62145;-82
2023/08/06 08:47:06;;;;;;;;;;;;;;;30.70;44.18;99391.23;102525;1300;63405;-82
2023/08/06 08:49:31;;;;;;;;;;;;;;;30.70;44.22;99389.45;102326;1306;62184;-82
2023/08/06 08:51:58;;;;;;;;;;;;;;;30.70;44.06;99386.00;102413;1304;62114;-82
2023/08/06 08:54:24;;;;;;;;;;;;;;;30.70;44.15;99388.14;102509;1301;63318;-82
2023/08/06 08:56:49;;;;;;;;;;;;;;;30.70;44.23;99387.81;102418;1306;62235;-82
2023/08/06 08:59:14;;;;;;;;;;;;;;;30.70;44.08;99395.95;102407;1300;62565;-82
2023/08/06 09:01:40;;;;;;;;;;;;;;;30.70;44.12;99401.94;102339;1300;63337;-82
2023/08/06 09:04:06;;;;;;;;;;;;;;;30.70;44.20;99413.38;102473;1300;62317;-82
2023/08/06 09:06:31;;;;;;;;;;;;;;;30.70;44.18;99428.97;102466;1303;62145;-82
2023/08/06 09:09:02;;;;;;;;;;;;;;;30.71;44.24;99438.17;102385;1305;62231;-82
2023/08/06 09:11:28;;;;;;;;;;;;;;;30.71;44.13;99439.27;102478;1302;66485;-82
2023/08/06 09:13:53;;;;;;;;;;;;;;;30.71;44.24;99443.20;102384;1300;62221;-82
2023/08/06 09:16:19;;;;;;;;;;;;;;;30.71;44.17;99448.11;102291;1300;62289;-82
2023/08/06 09:18:44;;;;;;;;;;;;;;;30.71;44.20;99436.34;102549;1304;62310;-82
2023/08/06 09:21:13;;;;;;;;;;;;;;;30.72;44.12;99431.52;102378;1301;62229;-82
2023/08/06 09:23:38;;;;;;;;;;;;;;;30.72;44.24;99433.70;102271;1306;66705;-81
2023/08/06 09:26:04;;;;;;;;;;;;;;;30.72;44.24;99442.08;102453;1300;62584;-81
2023/08/06 09:28:39;;;;;;;;;;;;;;;30.72;44.10;99439.86;102473;1300;62931;-83
2023/08/06 09:31:05;;;;;;;;;;;;;;;30.72;44.11;99441.98;102341;1302;63966;-84
2023/08/06 09:33:30;;;;;;;;;;;;;;;30.72;44.11;99453.65;102362;1305;62157;-84
2023/08/06 09:35:57;;;;;;;;;;;;;;;30.72;44.01;99466.66;102520;1304;63355;-82
2023/08/06 09:38:23;;;;;;;;;;;;;;;30.72;44.15;99475.89;102329;1307;62168;-81
2023/08/06 09:40:48;;;;;;;;;;;;;;;30.72;44.01;99478.08;102434;1300;62304;-81
2023/08/06 09:43:14;;;;;;;;;;;;;;;30.72;43.98;99472.45;102350;1306;63543;-82
2023/08/06 09:45:39;;;;;;;;;;;;;;;30.72;43.98;99463.52;102318;1305;66789;-84
2023/08/06 09:48:05;;;;;;;;;;;;;;;30.73;44.06;99455.69;102530;1300;62264;-84
2023/08/06 09:50:32;;;;;;;;;;;;;;;30.73;44.01;99453.14;102674;1300;62135;-82
2023/08/06 09:52:57;;;;;;;;;;;;;;;30.73;43.99;99457.11;102292;1302;62320;-82
2023/08/06 09:55:23;;;;;;;;;;;;;;;30.73;44.03;99464.95;102324;1306;62240;-82
2023/08/06 09:57:48;;;;;;;;;;;;;;;30.73;43.93;99468.72;102509;1305;62235;-82
2023/08/06 10:00:14;;;;;;;;;;;;;;;30.73;44.06;99468.19;102470;1305;62216;-81
2023/08/06 10:02:40;;;;;;;;;;;;;;;30.73;44.13;99464.23;102423;1306;63286;-82
2023/08/06 10:05:08;;;;;;;;;;;;;;;30.73;43.98;99450.08;102342;1302;63217;-81
2023/08/06 10:07:34;;;;;;;;;;;;;;;30.73;44.00;99439.69;102359;1302;66652;-81
2023/08/06 10:10:00;;;;;;;;;;;;;;;30.73;44.04;99437.01;102433;1309;63249;-83
2023/08/06 10:12:25;;;;;;;;;;;;;;;30.73;44.11;99432.10;102304;1308;62219;-83
2023/08/06 10:14:55;;;;;;;;;;;;;;;30.73;44.00;99415.76;102319;1305;62199;-82
2023/08/06 10:17:21;;;;;;;;;;;;;;;30.73;44.02;99408.30;102449;1300;66471;-81
2023/08/06 10:19:47;;;;;;;;;;;;;;;30.73;44.08;99402.98;102470;1306;63380;-82
2023/08/06 10:22:13;;;;;;;;;;;;;;;30.73;44.12;99397.19;102446;1304;62205;-81
2023/08/06 10:24:45;;;;;;;;;;;;;;;30.73;44.12;99386.89;102577;1307;62930;-81
2023/08/06 10:27:11;;;;;;;;;;;;;;;30.73;44.17;99385.38;102606;1306;66614;-83
2023/08/06 10:29:37;;;;;;;;;;;;;;;30.73;44.22;99385.05;102650;1300;62135;-83
2023/08/06 10:32:04;;;;;;;;;;;;;;;30.73;44.08;99384.48;102428;1299;62240;-83
2023/08/06 10:34:48;;;;;;;;;;;;;;;30.73;44.14;99385.00;102514;1306;62222;-82
2023/08/06 10:37:17;;;;;;;;;;;;;;;30.73;44.05;99382.66;102604;1305;67509;-82
2023/08/06 10:39:50;;;;;;;;;;;;;;;30.74;44.06;99379.65;102472;1305;62155;-82
2023/08/06 10:42:20;;;;;;;;;;;;;;;30.74;44.03;99373.27;102483;1301;62302;-82
2023/08/06 10:45:05;;;;;;;;;;;;;;;30.74;44.00;99364.39;102564;1305;62167;-83
2023/08/06 10:47:38;;;;;;;;;;;;;;;30.74;44.14;99357.52;102649;1301;66454;-82
2023/08/06 10:50:05;;;;;;;;;;;;;;;30.74;44.13;99360.75;102504;1303;62219;-82
2023/08/06 10:52:30;;;;;;;;;;;;;;;30.74;44.00;99377.20;102582;1304;63418;-82
2023/08/06 10:54:56;;;;;;;;;;;;;;;30.74;44.02;99382.58;102605;1305;62200;-82
2023/08/06 10:57:21;;;;;;;;;;;;;;;30.74;44.19;99391.05;102729;1305;62230;-82
2023/08/06 10:59:47;;;;;;;;;;;;;;;30.74;44.02;99399.38;102565;1305;62318;-82
2023/08/06 11:02:12;;;;;;;;;;;;;;;30.75;43.96;99415.30;102478;1305;62094;-82
2023/08/06 11:04:38;;;;;;;;;;;;;;;30.74;44.11;99423.31;102662;1299;62208;-82
2023/08/06 11:07:03;;;;;;;;;;;;;;;30.74;43.95;99419.33;102610;1304;63433;-83
2023/08/06 11:09:29;;;;;;;;;;;;;;;30.74;44.10;99417.91;102596;1305;62179;-83
2023/08/06 11:11:54;;;;;;;;;;;;;;;30.75;44.08;99408.94;102670;1307;62270;-82
2023/08/06 11:14:20;;;;;;;;;;;;;;;30.75;43.95;99400.76;102645;1304;62240;-83
2023/08/06 11:16:45;;;;;;;;;;;;;;;30.75;44.12;99379.35;102333;1306;62843;-83
2023/08/06 11:19:10;;;;;;;;;;;;;;;30.75;44.05;99373.36;102642;1299;62917;-83
2023/08/06 11:21:36;;;;;;;;;;;;;;;30.74;44.08;99373.95;102423;1304;62223;-82
2023/08/06 11:24:01;;;;;;;;;;;;;;;30.74;44.10;99383.66;102450;1305;66897;-83
2023/08/06 11:26:28;;;;;;;;;;;;;;;30.74;43.98;99379.64;102476;1305;62265;-83
2023/08/06 11:28:55;;;;;;;;;;;;;;;30.73;44.04;99367.53;102591;1299;62322;-82
2023/08/06 11:31:20;;;;;;;;;;;;;;;30.73;44.15;99362.63;102597;1300;62251;-83
2023/08/06 11:33:46;;;;;;;;;;;;;;;30.73;44.16;99384.33;102507;1300;62818;-83
2023/08/06 11:36:11;;;;;;;;;;;;;;;30.73;44.10;99410.99;102408;1302;62222;-83
2023/08/06 11:38:37;;;;;;;;;;;;;;;30.73;44.02;99410.85;102581;1299;62249;-82
2023/08/06 11:41:02;;;;;;;;;;;;;;;30.72;44.04;99403.81;102451;1306;62292;-82
2023/08/06 11:43:31;;;;;;;;;;;;;;;30.72;44.05;99400.55;102474;1300;62138;-83
2023/08/06 11:45:56;;;;;;;;;;;;;;;30.72;44.08;99392.91;102726;1302;66512;-82
2023/08/06 11:48:22;;;;;;;;;;;;;;;30.72;44.03;99380.27;102640;1300;62255;-83
2023/08/06 11:50:47;;;;;;;;;;;;;;;30.71;44.01;99359.15;102476;1306;62241;-83
2023/08/06 11:53:14;;;;;;;;;;;;;;;30.71;43.99;99334.26;102467;1305;62230;-81
2023/08/06 11:55:41;;;;;;;;;;;;;;;30.70;44.04;99324.91;102594;1299;62315;-81
2023/08/06 11:58:06;;;;;;;;;;;;;;;30.71;44.03;99345.57;102585;1306;62237;-83
2023/08/06 12:00:32;;;;;;;;;;;;;;;30.70;44.21;99345.27;102709;1305;62212;-82
2023/08/06 12:02:57;;;;;;;;;;;;;;;30.70;44.04;99330.83;102568;1303;62280;-83
2023/08/06 12:05:25;;;;;;;;;;;;;;;30.70;44.15;99331.95;102517;1301;62950;-83
2023/08/06 12:07:51;;;;;;;;;;;;;;;30.70;44.07;99345.36;102593;1305;66736;-82
2023/08/06 12:10:16;;;;;;;;;;;;;;;30.69;44.05;99350.85;102409;1303;62150;-82
2023/08/06 12:12:42;;;;;;;;;;;;;;;30.69;44.22;99359.44;102468;1300;62285;-82
2023/08/06 12:15:08;;;;;;;;;;;;;;;30.69;44.02;99367.27;102450;1305;62205;-82
2023/08/06 12:17:33;;;;;;;;;;;;;;;30.69;44.13;99365.46;102695;1300;62219;-82
2023/08/06 12:19:58;;;;;;;;;;;;;;;30.69;44.01;99353.45;102576;1306;62209;-81
2023/08/06 12:22:24;;;;;;;;;;;;;;;30.69;44.06;99329.17;102757;1303;62244;-82
2023/08/06 12:24:49;;;;;;;;;;;;;;;30.69;44.06;99296.08;102572;1300;62330;-82
2023/08/06 12:27:18;;;;;;;;;;;;;;;30.68;44.12;99277.27;102484;1302;62130;-82
2023/08/06 12:29:45;;;;;;;;;;;;;;;30.68;44.05;99269.81;102502;1302;66715;-81